Time;durP1;ratioP1;P1;durP2;ratioP2;P2;SDS_P1;SDS_P2;PMS_P1;PMS_P2;Temp;Humidity;BMP_temperature;BMP_pressure;BME280_temperature;BME280_humidity;BME280_pressure;Samples;Min_cycle;Max_cycle;Signal;HPM_P1;HPM_P2
2023/10/17 00:01:34;;;;;;;5.97;4.03;;;;;;;-145.18;100.00;46648.69;5016865;28;20839;-67
2023/10/17 00:06:45;;;;;;;12.50;4.70;;;;;;;-145.18;100.00;46648.69;5016529;28;20821;-67
2023/10/17 00:09:12;;;;;;;13.13;5.23;;;;;;;-145.18;100.00;46648.69;5018571;28;20262;-66
2023/10/17 00:14:44;;;;;;;6.97;4.13;;;;;;;-145.18;100.00;46656.50;5018761;28;20596;-67
2023/10/17 00:17:13;;;;;;;17.20;5.00;;;;;;;-145.18;100.00;46652.59;5017798;28;20330;-66
2023/10/17 00:19:41;;;;;;;13.53;4.33;;;;;;;-145.18;100.00;46656.50;5023745;28;20390;-66
2023/10/17 00:22:07;;;;;;;14.53;4.50;;;;;;;-145.18;100.00;46652.59;5016625;28;20349;-66
2023/10/17 00:24:33;;;;;;;13.43;3.93;;;;;;;-145.18;100.00;46646.72;5025360;28;20642;-67
2023/10/17 00:26:59;;;;;;;8.40;4.10;;;;;;;-145.18;100.00;46652.59;5024407;28;20271;-66
2023/10/17 00:29:24;;;;;;;9.37;3.97;;;;;;;-145.18;100.00;46648.69;5019564;28;20350;-66
2023/10/17 00:31:50;;;;;;;11.83;3.90;;;;;;;-145.18;100.00;46644.78;5021729;28;20115;-67
2023/10/17 00:34:21;;;;;;;11.77;4.80;;;;;;;-145.18;100.00;46650.63;5029193;28;20486;-67
2023/10/17 00:36:51;;;;;;;9.17;4.43;;;;;;;-145.18;100.00;46648.69;5028226;28;20068;-67
2023/10/17 00:39:30;;;;;;;10.17;3.77;;;;;;;-145.18;100.00;46652.59;5029699;28;20258;-67
2023/10/17 00:44:44;;;;;;;10.07;4.15;;;;;;;-145.18;100.00;46650.63;5029715;28;20277;-67
2023/10/17 00:47:11;;;;;;;8.07;3.80;;;;;;;-145.18;100.00;46648.69;5030086;28;20437;-66
2023/10/17 00:49:41;;;;;;;11.83;3.73;;;;;;;-145.18;100.00;46652.59;5018402;28;20251;-67
2023/10/17 00:52:17;;;;;;;10.87;3.87;;;;;;;-145.18;100.00;46650.63;5029568;28;20303;-67
2023/10/17 00:54:43;;;;;;;7.50;3.60;;;;;;;-145.18;100.00;46654.53;5030382;28;20626;-66
2023/10/17 00:57:10;;;;;;;11.67;4.03;;;;;;;-145.18;100.00;46654.53;5022643;28;20392;-66
2023/10/17 00:59:35;;;;;;;8.87;3.63;;;;;;;-145.18;100.00;46656.50;5028179;28;20278;-66
2023/10/17 01:02:08;;;;;;;5.53;3.13;;;;;;;-145.18;100.00;46648.69;5026840;28;20251;-66
2023/10/17 01:04:40;;;;;;;7.53;3.73;;;;;;;-145.18;100.00;46654.53;5028430;28;20033;-67
2023/10/17 01:07:07;;;;;;;12.97;3.40;;;;;;;-145.18;100.00;46660.41;5029445;28;20353;-66
2023/10/17 01:09:35;;;;;;;9.33;3.70;;;;;;;-145.18;100.00;46654.53;5031368;28;20328;-67
2023/10/17 01:12:08;;;;;;;6.87;3.23;;;;;;;-145.18;100.00;46656.50;5034227;28;20769;-66
2023/10/17 01:14:34;;;;;;;7.90;2.90;;;;;;;-145.18;100.00;46656.50;5030672;28;20269;-66
2023/10/17 01:17:05;;;;;;;9.50;2.90;;;;;;;-145.18;100.00;46656.50;5032152;28;20275;-66
2023/10/17 01:19:32;;;;;;;5.93;2.73;;;;;;;-145.18;100.00;46658.44;5032058;28;20107;-66
2023/10/17 01:21:58;;;;;;;6.37;3.20;;;;;;;-145.18;100.00;46656.50;5032202;28;20254;-66
2023/10/17 01:24:23;;;;;;;6.03;2.60;;;;;;;-145.18;100.00;46656.50;5033009;28;20787;-67
2023/10/17 01:26:48;;;;;;;9.53;2.47;;;;;;;-145.18;100.00;46656.50;5031740;28;20029;-66
2023/10/17 01:29:14;;;;;;;6.27;2.70;;;;;;;-145.18;100.00;46654.53;5030649;28;20037;-66
2023/10/17 01:31:43;;;;;;;7.73;2.90;;;;;;;-145.18;100.00;46656.50;5030362;28;20137;-66
2023/10/17 01:34:09;;;;;;;11.07;2.97;;;;;;;-145.18;100.00;46662.34;5027437;28;20038;-67
2023/10/17 01:36:35;;;;;;;7.23;2.73;;;;;;;-145.18;100.00;46660.41;5015503;28;20259;-67
2023/10/17 01:39:10;;;;;;;8.00;2.60;;;;;;;-145.18;100.00;46654.53;5016121;28;20262;-66
2023/10/17 01:41:48;;;;;;;6.40;2.85;;;;;;;-145.18;100.00;46662.34;5016195;28;20034;-67
2023/10/17 01:44:14;;;;;;;4.27;2.70;;;;;;;-145.18;100.00;46660.41;5014795;28;20398;-63
2023/10/17 01:46:43;;;;;;;6.83;2.67;;;;;;;-145.18;100.00;46668.22;5019105;28;20270;-63
2023/10/17 01:49:12;;;;;;;6.10;2.70;;;;;;;-145.18;100.00;46662.34;5016720;28;20732;-63
2023/10/17 01:51:42;;;;;;;11.07;3.00;;;;;;;-145.18;100.00;46658.44;5018135;28;20274;-63
2023/10/17 01:54:08;;;;;;;5.97;2.67;;;;;;;-145.18;100.00;46662.34;5021698;28;20378;-63
2023/10/17 01:56:39;;;;;;;5.83;2.53;;;;;;;-145.18;100.00;46662.34;5017782;28;20807;-63
2023/10/17 01:59:12;;;;;;;6.97;2.87;;;;;;;-145.18;100.00;46662.34;5016768;28;20268;-63
2023/10/17 02:01:40;;;;;;;7.57;2.87;;;;;;;-145.18;100.00;46662.34;5028850;28;20263;-63
2023/10/17 02:04:12;;;;;;;8.53;3.00;;;;;;;-145.18;100.00;46662.34;5022738;28;20271;-63
2023/10/17 02:06:39;;;;;;;9.27;2.73;;;;;;;-145.18;100.00;46658.44;5033509;28;20250;-63
2023/10/17 02:09:23;;;;;;;7.23;2.90;;;;;;;-145.18;100.00;46662.34;5033397;28;20255;-63
2023/10/17 02:11:54;;;;;;;6.87;2.30;;;;;;;-145.18;100.00;46660.41;5030180;28;21150;-63
2023/10/17 02:14:23;;;;;;;3.73;2.13;;;;;;;-145.18;100.00;46658.44;5032028;28;20635;-63
2023/10/17 02:16:49;;;;;;;6.93;2.83;;;;;;;-145.18;100.00;46654.53;5031509;28;20352;-63
2023/10/17 02:19:15;;;;;;;5.37;2.90;;;;;;;-145.18;100.00;46658.44;5031198;28;20380;-63
2023/10/17 02:21:43;;;;;;;5.30;2.30;;;;;;;-145.18;100.00;46658.44;5031824;28;20784;-63
2023/10/17 02:24:09;;;;;;;3.93;2.30;;;;;;;-145.18;100.00;46662.34;5019808;28;20256;-63
2023/10/17 02:26:54;;;;;;;14.37;2.63;;;;;;;-145.18;100.00;46660.41;5030379;28;20760;-63
2023/10/17 02:29:23;;;;;;;6.10;2.33;;;;;;;-145.18;100.00;46666.25;5030702;28;20604;-63
2023/10/17 02:31:52;;;;;;;17.23;2.87;;;;;;;-145.18;100.00;46662.34;5032313;28;20375;-63
2023/10/17 02:34:22;;;;;;;5.53;2.13;;;;;;;-145.18;100.00;46660.41;5020583;28;20349;-63
2023/10/17 02:36:52;;;;;;;6.93;2.27;;;;;;;-145.18;100.00;46660.41;5028707;28;20254;-63
2023/10/17 02:39:20;;;;;;;7.50;2.43;;;;;;;-145.18;100.00;46664.31;5030750;28;20285;-63
2023/10/17 02:41:46;;;;;;;6.07;2.40;;;;;;;-145.18;100.00;46662.34;5031601;28;20266;-63
2023/10/17 02:44:19;;;;;;;4.70;2.43;;;;;;;-145.18;100.00;46662.34;5033095;28;20251;-63
2023/10/17 02:46:45;;;;;;;5.27;2.17;;;;;;;-145.18;100.00;46660.41;5030139;28;20029;-63
2023/10/17 02:49:13;;;;;;;5.60;2.47;;;;;;;-145.18;100.00;46660.41;5029379;28;20622;-63
2023/10/17 02:51:42;;;;;;;4.73;2.40;;;;;;;-145.18;100.00;46660.41;5026680;28;20114;-63
2023/10/17 02:54:12;;;;;;;7.17;2.10;;;;;;;-145.18;100.00;46662.34;5028698;28;20278;-63
2023/10/17 02:56:38;;;;;;;8.10;2.53;;;;;;;-145.18;100.00;46662.34;5024189;28;20259;-63
2023/10/17 02:59:04;;;;;;;8.13;2.43;;;;;;;-145.18;100.00;46666.25;5031314;28;20270;-63
2023/10/17 03:01:31;;;;;;;6.23;2.60;;;;;;;-145.18;100.00;46660.41;5015755;28;20684;-63
2023/10/17 03:04:10;;;;;;;4.90;1.83;;;;;;;-145.18;100.00;46658.44;5026439;28;20021;-63
2023/10/17 03:06:43;;;;;;;4.53;2.07;;;;;;;-145.18;100.00;46658.44;5021757;28;20327;-63
2023/10/17 03:09:16;;;;;;;11.90;2.10;;;;;;;-145.18;100.00;46658.44;5026490;28;20250;-63
2023/10/17 03:12:19;;;;;;;7.63;2.43;;;;;;;-145.18;100.00;46660.41;5025357;28;20627;-63
2023/10/17 03:17:11;;;;;;;6.20;2.20;;;;;;;-145.18;100.00;46654.53;5026425;28;20290;-63
2023/10/17 03:19:38;;;;;;;8.40;2.30;;;;;;;-145.18;100.00;46658.44;5024185;28;20333;-63
2023/10/17 03:22:50;;;;;;;7.07;2.30;;;;;;;-145.18;100.00;46668.22;5025715;28;20254;-63
2023/10/17 03:25:18;;;;;;;4.17;2.33;;;;;;;-145.18;100.00;46664.31;5014252;28;20279;-63
2023/10/17 03:27:48;;;;;;;3.17;2.13;;;;;;;-145.18;100.00;46664.31;5026326;28;20275;-63
2023/10/17 03:30:14;;;;;;;6.87;2.60;;;;;;;-145.18;100.00;46658.44;5029934;28;20648;-63
2023/10/17 03:35:56;;;;;;;6.13;2.37;;;;;;;-145.18;100.00;46656.50;5024222;28;20271;-63
2023/10/17 03:38:26;;;;;;;7.67;3.17;;;;;;;-145.18;100.00;46658.44;5018258;28;20277;-63
2023/10/17 03:40:53;;;;;;;4.80;2.63;;;;;;;-145.18;100.00;46666.25;5020635;28;20271;-63
2023/10/17 03:43:21;;;;;;;7.53;2.87;;;;;;;-145.18;100.00;46658.44;5020931;28;20262;-63
2023/10/17 03:45:56;;;;;;;5.47;2.63;;;;;;;-145.18;100.00;46656.50;5022313;28;20761;-63
2023/10/17 03:48:23;;;;;;;7.07;3.08;;;;;;;-145.18;100.00;46654.53;5020388;28;20635;-63
2023/10/17 03:50:58;;;;;;;6.53;2.87;;;;;;;-145.18;100.00;46656.50;5023682;28;20041;-63
2023/10/17 03:53:30;;;;;;;8.57;2.63;;;;;;;-145.18;100.00;46652.59;5019411;28;20793;-63
2023/10/17 03:56:00;;;;;;;7.27;2.77;;;;;;;-145.18;100.00;46662.34;5018126;28;20026;-63
2023/10/17 04:01:07;;;;;;;11.60;3.40;;;;;;;-145.18;100.00;46658.44;5022806;28;20258;-63
2023/10/17 04:03:34;;;;;;;7.37;3.63;;;;;;;-145.18;100.00;46666.25;5021543;28;20255;-63
2023/10/17 04:08:37;;;;;;;10.43;4.33;;;;;;;-145.18;100.00;46656.50;5024020;28;20329;-67
2023/10/17 04:14:09;;;;;;;9.87;4.00;;;;;;;-145.18;100.00;46656.50;5003820;28;20275;-66
2023/10/17 04:16:35;;;;;;;11.33;4.60;;;;;;;-145.18;100.00;46656.50;5020671;28;20748;-66
2023/10/17 04:19:01;;;;;;;9.23;4.67;;;;;;;-145.18;100.00;46656.50;5023954;28;20354;-66
2023/10/17 04:21:31;;;;;;;9.67;4.40;;;;;;;-145.18;100.00;46648.69;5019234;28;20029;-66
2023/10/17 04:24:05;;;;;;;7.77;4.27;;;;;;;-145.18;100.00;46652.59;5022572;28;20670;-67
2023/10/17 04:26:34;;;;;;;11.83;4.80;;;;;;;-145.18;100.00;46652.59;5020355;28;20350;-66
2023/10/17 04:29:10;;;;;;;16.57;4.93;;;;;;;-145.18;100.00;46654.53;5027770;28;20274;-67
2023/10/17 04:31:36;;;;;;;12.20;4.87;;;;;;;-145.18;100.00;46654.53;5022560;28;20446;-67
2023/10/17 04:34:14;;;;;;;9.77;5.00;;;;;;;-145.18;100.00;46652.59;5022551;28;20295;-67
2023/10/17 04:36:41;;;;;;;14.63;5.20;;;;;;;-145.18;100.00;46650.63;5029578;28;20041;-67
2023/10/17 04:44:21;;;;;;;14.63;6.17;;;;;;;-145.18;100.00;46650.63;5028000;28;20289;-67
2023/10/17 04:47:15;;;;;;;18.13;7.93;;;;;;;-145.18;100.00;46654.53;5020271;28;20267;-67
2023/10/17 04:49:36;;;;;;;16.80;7.57;;;;;;;-145.18;100.00;46652.59;5026614;28;20659;-67
2023/10/17 04:52:19;;;;;;;13.13;7.70;;;;;;;-145.18;100.00;46648.69;5034071;28;20714;-67
2023/10/17 04:54:47;;;;;;;12.83;7.33;;;;;;;-145.18;100.00;46652.59;5026045;28;20279;-67
2023/10/17 04:57:16;;;;;;;14.00;7.67;;;;;;;-145.18;100.00;46652.59;5022350;28;20329;-66
2023/10/17 06:18:48;;;;;;;10.13;5.10;;;;;;;-145.18;100.00;46644.78;5022600;28;20336;-63
2023/10/17 06:21:35;;;;;;;14.47;5.50;;;;;;;-145.18;100.00;46646.72;5026610;28;20265;-63
2023/10/17 06:24:06;;;;;;;7.53;5.15;;;;;;;-145.18;100.00;46644.78;5027104;28;20328;-66
2023/10/17 06:34:09;;;;;;;9.23;5.43;;;;;;;-145.18;100.00;46646.72;5030790;28;20432;-66
2023/10/17 06:36:39;;;;;;;7.00;4.70;;;;;;;-145.18;100.00;46644.78;5028736;28;20349;-66
2023/10/17 06:39:13;;;;;;;7.23;4.87;;;;;;;-145.18;100.00;46642.81;5032968;28;20029;-66
2023/10/17 06:41:39;;;;;;;13.23;5.57;;;;;;;-145.18;100.00;46644.78;5029215;28;20336;-66
2023/10/17 06:44:05;;;;;;;10.40;5.63;;;;;;;-145.18;100.00;46646.72;5031628;28;20278;-66
2023/10/17 06:46:40;;;;;;;9.63;5.40;;;;;;;-145.18;100.00;46644.78;5030158;28;20267;-66
2023/10/17 06:49:19;;;;;;;12.57;5.50;;;;;;;-145.18;100.00;46646.72;5032144;28;20360;-66
2023/10/17 06:51:56;;;;;;;10.20;5.67;;;;;;;-145.18;100.00;46644.78;5016478;28;20033;-66
2023/10/17 06:54:25;;;;;;;8.80;5.60;;;;;;;-145.18;100.00;46644.78;5028888;28;20643;-67
2023/10/17 06:56:55;;;;;;;11.13;6.50;;;;;;;-145.18;100.00;46646.72;5030312;28;20263;-66
2023/10/17 06:59:35;;;;;;;11.63;6.07;;;;;;;-145.18;100.00;46642.81;5012057;28;20271;-66
2023/10/17 07:02:09;;;;;;;11.10;5.57;;;;;;;-145.18;100.00;46644.78;5020656;28;20259;-66
2023/10/17 07:04:37;;;;;;;11.33;5.57;;;;;;;-145.18;100.00;46648.69;5028431;28;20294;-68
2023/10/17 07:07:03;;;;;;;14.10;7.03;;;;;;;-145.18;100.00;46646.72;5021092;28;20337;-66
2023/10/17 07:09:30;;;;;;;11.90;6.50;;;;;;;-145.18;100.00;46652.59;5018938;28;20354;-66
2023/10/17 07:12:02;;;;;;;15.23;6.57;;;;;;;-145.18;100.00;46644.78;5020403;28;20350;-66
2023/10/17 07:14:27;;;;;;;11.57;6.97;;;;;;;-145.18;100.00;46646.72;5027417;28;20310;-66
2023/10/17 07:17:00;;;;;;;10.13;6.07;;;;;;;-145.18;100.00;46644.78;5026912;28;20309;-66
2023/10/17 07:24:25;;;;;;;16.40;8.73;;;;;;;-145.18;100.00;46644.78;5021939;28;20553;-66
2023/10/17 07:26:54;;;;;;;19.17;8.63;;;;;;;-145.18;100.00;46642.81;5018551;28;20358;-66
2023/10/17 07:29:22;;;;;;;16.57;7.87;;;;;;;-145.18;100.00;46644.78;5027229;28;20259;-66
2023/10/17 07:32:01;;;;;;;17.33;9.10;;;;;;;-145.18;100.00;46646.72;5031095;28;20313;-67
2023/10/17 07:34:33;;;;;;;18.17;9.60;;;;;;;-145.18;100.00;46640.88;5020464;28;20770;-66
2023/10/17 07:37:12;;;;;;;16.37;9.50;;;;;;;-145.18;100.00;46640.88;5027447;28;20803;-66
2023/10/17 07:39:38;;;;;;;17.27;9.80;;;;;;;-145.18;100.00;46644.78;5022962;28;20370;-66
2023/10/17 07:42:14;;;;;;;15.00;9.70;;;;;;;-145.18;100.00;46646.72;5035846;28;20262;-66
2023/10/17 07:44:41;;;;;;;19.30;9.80;;;;;;;-145.18;100.00;46640.88;5027558;28;20330;-66
2023/10/17 07:49:42;;;;;;;19.90;10.40;;;;;;;-145.18;100.00;46640.88;5027610;28;20951;-67
2023/10/17 07:52:12;;;;;;;16.48;9.77;;;;;;;-145.18;100.00;46642.81;5030217;28;20267;-66
2023/10/17 07:54:45;;;;;;;21.53;10.63;;;;;;;-145.18;100.00;46646.72;5025338;28;20296;-67
2023/10/17 07:57:23;;;;;;;17.87;10.03;;;;;;;-145.18;100.00;46648.69;5036088;28;20365;-67
2023/10/17 07:59:52;;;;;;;16.57;9.53;;;;;;;-145.18;100.00;46642.81;5037630;28;20337;-66
2023/10/17 08:02:20;;;;;;;17.97;10.10;;;;;;;-145.18;100.00;46646.72;5036441;28;20258;-66
2023/10/17 08:04:50;;;;;;;19.37;9.47;;;;;;;-145.18;100.00;46644.78;5036914;28;20357;-66
2023/10/17 08:07:20;;;;;;;22.17;10.27;;;;;;;-145.18;100.00;46642.81;5032126;28;20281;-67
2023/10/17 08:09:56;;;;;;;18.43;9.37;;;;;;;-145.18;100.00;46648.69;5036959;28;20267;-66
2023/10/17 08:12:24;;;;;;;18.23;10.95;;;;;;;-145.18;100.00;46646.72;5037722;28;20274;-66
2023/10/17 08:15:19;;;;;;;15.00;8.93;;;;;;;-145.18;100.00;46648.69;5034906;28;20370;-67
2023/10/17 08:17:44;;;;;;;17.47;11.40;;;;;;;-145.18;100.00;46648.69;5036295;28;20762;-66
2023/10/17 08:23:12;;;;;;;23.17;10.73;;;;;;;-145.18;100.00;46648.69;5019483;28;20393;-67
2023/10/17 08:25:32;;;;;;;18.20;10.00;;;;;;;-145.18;100.00;46654.53;5037424;28;20270;-67
2023/10/17 08:27:58;;;;;;;19.27;10.30;;;;;;;-145.18;100.00;46656.50;5032868;28;20278;-67
2023/10/17 08:30:25;;;;;;;16.70;9.23;;;;;;;-145.18;100.00;46656.50;5035121;28;20789;-67
2023/10/17 08:35:40;;;;;;;23.47;10.90;;;;;;;-145.18;100.00;46656.50;5036153;28;20274;-67
2023/10/17 08:38:07;;;;;;;15.50;9.30;;;;;;;-145.18;100.00;46660.41;5034696;28;20269;-66
2023/10/17 08:43:10;;;;;;;16.30;8.47;;;;;;;-145.18;100.00;46666.25;5037713;28;20746;-67
2023/10/17 08:45:38;;;;;;;15.90;8.83;;;;;;;-145.18;100.00;46666.25;5036334;28;20275;-67
2023/10/17 08:48:06;;;;;;;21.73;9.03;;;;;;;-145.18;100.00;46668.22;5036750;28;20612;-66
2023/10/17 08:50:39;;;;;;;11.80;7.83;;;;;;;-145.18;100.00;46668.22;5036060;28;20689;-67
2023/10/17 08:53:13;;;;;;;13.23;7.83;;;;;;;-145.18;100.00;46672.13;5037679;28;20274;-67
2023/10/17 08:55:42;;;;;;;17.07;8.13;;;;;;;-145.18;100.00;46672.13;5034677;28;20766;-66
2023/10/17 08:58:10;;;;;;;12.47;7.87;;;;;;;-145.18;100.00;46674.06;5036821;28;20264;-66
2023/10/17 09:03:11;;;;;;;15.93;7.87;;;;;;;-145.18;100.00;46676.03;5035305;28;20341;-66
2023/10/17 09:08:55;;;;;;;14.20;7.50;;;;;;;-145.18;100.00;46681.88;5030329;28;20366;-67
2023/10/17 09:11:29;;;;;;;15.63;8.03;;;;;;;-145.18;100.00;46681.88;5029602;28;20091;-67
2023/10/17 09:16:40;;;;;;;16.33;7.70;;;;;;;-145.18;100.00;46681.88;5027925;28;20056;-67
2023/10/17 09:19:10;;;;;;;13.97;8.07;;;;;;;-145.18;100.00;46687.75;5026823;28;20417;-66
2023/10/17 09:21:42;;;;;;;15.63;8.30;;;;;;;-145.18;100.00;46687.75;5031970;28;20025;-67
2023/10/17 09:24:29;;;;;;;14.97;8.30;;;;;;;-145.18;100.00;46683.84;5028191;28;20552;-67
2023/10/17 09:26:56;;;;;;;15.53;7.77;;;;;;;-145.18;100.00;46685.78;5026863;28;20029;-67
2023/10/17 09:29:22;;;;;;;15.90;8.27;;;;;;;-145.18;100.00;46687.75;5030514;28;20108;-66
2023/10/17 09:31:47;;;;;;;12.50;7.57;;;;;;;-145.18;100.00;46685.78;5032547;28;20114;-67
2023/10/17 09:34:14;;;;;;;13.40;7.30;;;;;;;-145.18;100.00;46677.97;5031450;28;20485;-66
2023/10/17 09:36:42;;;;;;;9.67;6.80;;;;;;;-145.18;100.00;46674.06;5032422;28;20529;-67
2023/10/17 09:39:14;;;;;;;11.87;7.20;;;;;;;-145.18;100.00;46654.53;5032568;28;20040;-66
2023/10/17 09:41:40;;;;;;;12.30;6.10;;;;;;;-145.18;100.00;46631.09;5030328;28;20026;-67
2023/10/17 09:44:10;;;;;;;11.53;6.50;;;;;;;-145.18;100.00;46607.66;5031285;28;20041;-66
2023/10/17 09:46:37;;;;;;;13.07;7.27;;;;;;;-145.18;100.00;46607.66;5026394;28;20034;-67
2023/10/17 09:49:05;;;;;;;11.93;7.30;;;;;;;-145.18;100.00;46599.84;5027324;28;20026;-66
2023/10/17 09:51:35;;;;;;;13.73;6.07;;;;;;;-145.18;100.00;46568.59;5031103;28;20038;-67
2023/10/17 09:54:04;;;;;;;10.97;5.00;;;;;;;-145.18;100.00;46564.69;5032814;28;20034;-63
2023/10/17 09:56:38;;;;;;;10.13;5.93;;;;;;;-145.18;100.00;46556.88;5028703;28;20555;-63
2023/10/17 09:59:07;;;;;;;12.17;5.50;;;;;;;-145.18;100.00;46552.97;5033435;28;20416;-63
2023/10/17 10:01:35;;;;;;;8.37;5.43;;;;;;;-145.18;100.00;46560.78;5031352;28;20018;-63
2023/10/17 10:04:01;;;;;;;8.13;5.20;;;;;;;-145.18;100.00;46568.59;5033146;28;20087;-63
2023/10/17 10:06:31;;;;;;;10.77;6.13;;;;;;;-145.18;100.00;46574.44;5026900;28;20025;-63
2023/10/17 10:09:19;;;;;;;10.77;6.00;;;;;;;-145.18;100.00;46578.34;5030605;28;20052;-63
2023/10/17 10:11:53;;;;;;;11.87;6.27;;;;;;;-145.18;100.00;46576.41;5032384;28;20053;-63
2023/10/17 10:14:27;;;;;;;12.27;5.73;;;;;;;-145.18;100.00;46582.25;5025862;28;20033;-63
2023/10/17 10:17:05;;;;;;;10.00;4.73;;;;;;;-145.18;100.00;46580.31;5030024;28;20053;-63
2023/10/17 10:19:43;;;;;;;9.20;5.07;;;;;;;-145.18;100.00;46590.06;5027130;28;20037;-63
2023/10/17 10:22:10;;;;;;;8.20;5.30;;;;;;;-145.18;100.00;46593.97;5031376;28;20025;-63
2023/10/17 10:24:36;;;;;;;10.13;5.33;;;;;;;-145.18;100.00;46586.16;5027756;28;20021;-63
2023/10/17 10:27:26;;;;;;;9.13;5.30;;;;;;;-145.18;100.00;46590.06;5029608;28;20367;-63
2023/10/17 10:29:54;;;;;;;9.77;5.20;;;;;;;-145.18;100.00;46593.97;5031898;28;20120;-63
2023/10/17 10:32:25;;;;;;;9.47;6.00;;;;;;;-145.18;100.00;46599.84;5028833;28;20046;-63
2023/10/17 10:34:52;;;;;;;6.87;4.93;;;;;;;-145.18;100.00;46584.22;5021196;28;20402;-64
2023/10/17 10:37:20;;;;;;;7.37;4.27;;;;;;;-145.18;100.00;46595.94;5027846;28;20026;-63
2023/10/17 10:40:12;;;;;;;8.10;5.33;;;;;;;-145.18;100.00;46613.50;5031629;28;20039;-63
2023/10/17 10:42:51;;;;;;;9.17;5.20;;;;;;;-145.18;100.00;46599.84;5028145;28;20026;-63
2023/10/17 10:45:24;;;;;;;10.73;5.17;;;;;;;-145.18;100.00;46621.31;5029090;28;20033;-63
2023/10/17 10:47:49;;;;;;;10.17;5.20;;;;;;;-145.18;100.00;46597.88;5031687;28;20033;-63
2023/10/17 10:50:15;;;;;;;11.93;4.90;;;;;;;-145.18;100.00;46615.47;5028825;28;20041;-63
2023/10/17 10:52:41;;;;;;;10.77;4.73;;;;;;;-145.18;100.00;46646.72;5029611;28;20032;-63
2023/10/17 10:55:09;;;;;;;9.93;5.00;;;;;;;-145.18;100.00;46677.97;5028761;28;20041;-63
2023/10/17 10:57:35;;;;;;;7.33;5.07;;;;;;;-145.18;100.00;46677.97;5029231;28;20037;-63
2023/10/17 11:00:05;;;;;;;6.57;4.23;;;;;;;-145.18;100.00;46652.59;5024250;28;20030;-63
2023/10/17 11:02:31;;;;;;;8.50;4.53;;;;;;;-145.18;100.00;46676.03;5029470;28;20033;-63
2023/10/17 11:04:58;;;;;;;8.07;4.47;;;;;;;-145.18;100.00;46656.50;5029507;28;20029;-63
2023/10/17 11:07:24;;;;;;;8.43;4.33;;;;;;;-145.18;100.00;46687.75;5026081;28;20036;-63
2023/10/17 11:10:10;;;;;;;8.57;4.73;;;;;;;-145.18;100.00;46676.03;5032664;28;20055;-63
2023/10/17 11:12:37;;;;;;;10.30;4.50;;;;;;;-145.18;100.00;46685.78;5026420;28;20438;-63
2023/10/17 11:15:16;;;;;;;9.17;4.60;;;;;;;-145.18;100.00;46666.25;5026400;28;20064;-63
2023/10/17 11:17:45;;;;;;;6.90;4.23;;;;;;;-145.18;100.00;46687.75;5029007;28;20104;-63
2023/10/17 11:20:14;;;;;;;9.07;4.30;;;;;;;-145.18;100.00;46730.72;5029897;28;20120;-62
2023/10/17 11:22:41;;;;;;;7.97;4.40;;;;;;;-145.18;100.00;46785.41;5028910;28;20108;-63
2023/10/17 11:25:26;;;;;;;14.07;4.60;;;;;;;-145.18;100.00;46769.78;5028501;28;20029;-63
2023/10/17 11:28:08;;;;;;;7.13;3.70;;;;;;;-145.18;100.00;47176.09;5026399;28;20449;-63
2023/10/17 11:30:42;;;;;;;8.87;4.40;;;;;;;-145.18;100.00;47320.69;5030675;28;20041;-63
2023/10/17 11:33:11;;;;;;;8.20;4.23;;;;;;;-145.18;100.00;47215.19;5028461;28;20038;-63
2023/10/17 11:36:02;;;;;;;6.30;3.60;;;;;;;-145.18;100.00;47316.78;5031978;28;20029;-63
2023/10/17 11:38:35;;;;;;;8.80;4.80;;;;;;;-145.18;100.00;47289.41;5029282;28;20029;-63
2023/10/17 11:41:04;;;;;;;5.73;4.00;;;;;;;-145.18;100.00;47291.38;5025976;28;20104;-63
2023/10/17 11:43:34;;;;;;;5.67;3.60;;;;;;;-145.18;100.00;47269.88;5029050;28;20025;-63
2023/10/17 11:46:03;;;;;;;5.07;3.60;;;;;;;-145.18;100.00;47254.25;5031578;28;20029;-64
2023/10/17 11:48:36;;;;;;;8.90;4.20;;;;;;;-145.18;100.00;47252.31;5026969;28;20029;-63
2023/10/17 11:51:13;;;;;;;5.90;3.93;;;;;;;-145.18;100.00;47223.00;5028919;28;20031;-63
2023/10/17 11:54:11;;;;;;;9.67;4.00;;;;;;;-145.18;100.00;47224.94;5028077;28;20037;-62
2023/10/17 11:56:39;;;;;;;9.67;4.53;;;;;;;-145.18;100.00;47250.34;5028828;28;20029;-62
2023/10/17 11:59:10;;;;;;;10.00;4.33;;;;;;;-145.18;100.00;47221.03;5025822;28;20041;-62
2023/10/17 12:01:36;;;;;;;7.67;3.90;;;;;;;-145.18;100.00;47219.09;5030823;28;20044;-63
2023/10/17 12:04:08;;;;;;;6.37;3.73;;;;;;;-145.18;100.00;47189.78;5029710;28;20017;-62
2023/10/17 12:06:39;;;;;;;9.73;4.03;;;;;;;-145.18;100.00;47201.50;5029981;28;20037;-63
2023/10/17 12:09:17;;;;;;;6.47;4.23;;;;;;;-145.18;100.00;47183.94;5030570;28;20036;-63
2023/10/17 12:11:47;;;;;;;6.13;4.00;;;;;;;-145.18;100.00;47185.88;5025085;28;20037;-62
2023/10/17 12:14:22;;;;;;;8.33;4.53;;;;;;;-145.18;100.00;47158.53;5024484;28;20038;-65
2023/10/17 12:16:53;;;;;;;8.38;3.83;;;;;;;-145.18;100.00;47137.03;5028386;28;20107;-65
2023/10/17 12:19:23;;;;;;;7.90;4.00;;;;;;;-145.18;100.00;47105.78;5027510;28;20079;-65
2023/10/17 12:21:48;;;;;;;6.60;3.60;;;;;;;-145.18;100.00;47086.25;5028762;28;20034;-65
2023/10/17 12:24:24;;;;;;;8.50;3.90;;;;;;;-145.18;100.00;47074.53;5029829;28;20025;-65
2023/10/17 12:26:53;;;;;;;7.15;3.80;;;;;;;-145.18;81.91;47060.84;5028680;28;20030;-64
2023/10/17 12:29:19;;;;;;;7.43;4.57;;;;;;;-145.18;0.00;47072.56;5029158;28;20033;-64
2023/10/17 12:31:45;;;;;;;7.97;3.70;;;;;;;-145.18;0.00;47049.13;5026012;28;20122;-64
2023/10/17 12:34:15;;;;;;;8.60;3.80;;;;;;;-145.18;0.00;47043.28;5027890;28;20520;-64
2023/10/17 12:36:41;;;;;;;5.27;3.20;;;;;;;-145.18;0.00;47019.81;5029000;28;20033;-65
2023/10/17 12:39:08;;;;;;;11.53;3.30;;;;;;;-145.18;0.00;47021.78;4988405;28;20386;-64
2023/10/17 12:41:36;;;;;;;4.27;2.90;;;;;;;-145.18;0.00;47015.91;5024968;28;20115;-64
2023/10/17 12:44:02;;;;;;;6.63;2.60;;;;;;;-145.18;0.00;46951.44;5028848;28;20026;-64
2023/10/17 12:46:27;;;;;;;5.03;3.23;;;;;;;-145.18;0.00;46972.94;5024710;28;20033;-64
2023/10/17 12:48:53;;;;;;;6.40;3.07;;;;;;;-145.18;0.00;46941.69;5029665;28;20037;-64
2023/10/17 12:51:21;;;;;;;5.53;3.20;;;;;;;-145.18;0.00;46924.09;5027509;28;20037;-64
2023/10/17 12:53:47;;;;;;;10.27;2.70;;;;;;;-145.18;0.00;46922.16;5027089;28;20124;-64
2023/10/17 12:56:12;;;;;;;5.07;2.43;;;;;;;-145.18;0.00;46939.72;5026308;28;20156;-64
2023/10/17 12:58:38;;;;;;;5.63;3.07;;;;;;;-145.18;0.00;46941.69;5028831;28;20038;-64
2023/10/17 13:01:04;;;;;;;4.57;2.87;;;;;;;-145.18;0.00;46990.53;5027238;28;20036;-64
2023/10/17 13:03:33;;;;;;;3.67;2.60;;;;;;;-145.18;0.00;47019.81;5029790;28;20056;-64
2023/10/17 13:06:00;;;;;;;6.67;3.17;;;;;;;-145.18;0.00;47072.56;5031838;28;20032;-64
2023/10/17 13:08:25;;;;;;;6.60;3.40;;;;;;;-145.18;0.00;47088.19;5030019;28;20029;-64
2023/10/17 13:10:54;;;;;;;6.53;3.20;;;;;;;-145.18;0.00;46994.44;5033542;28;20040;-64
2023/10/17 13:13:19;;;;;;;5.20;3.13;;;;;;;-145.18;0.00;47008.09;5033865;28;20389;-64
2023/10/17 13:15:45;;;;;;;5.73;2.83;;;;;;;-145.18;0.00;47031.53;5031861;28;20037;-64
2023/10/17 13:18:12;;;;;;;5.30;2.93;;;;;;;-145.18;0.00;47000.28;5030446;28;20164;-64
2023/10/17 13:20:38;;;;;;;5.07;3.00;;;;;;;-145.18;0.00;46959.25;5033337;28;20037;-64
2023/10/17 13:23:03;;;;;;;4.17;3.47;;;;;;;-145.18;0.00;46949.50;5033031;28;20404;-64
2023/10/17 13:25:36;;;;;;;5.13;3.10;;;;;;;-145.18;0.00;47029.59;5031126;28;20520;-62
2023/10/17 13:28:03;;;;;;;4.87;3.10;;;;;;;-145.18;0.00;46990.53;5026082;28;20041;-62
2023/10/17 13:30:28;;;;;;;6.30;2.90;;;;;;;-145.18;0.00;46955.34;5029613;28;20037;-63
2023/10/17 13:32:55;;;;;;;4.40;2.83;;;;;;;-145.18;0.00;46980.75;5033672;28;20539;-63
2023/10/17 13:35:22;;;;;;;6.73;3.50;;;;;;;-145.18;0.00;47031.53;5030358;28;20041;-62
2023/10/17 13:37:54;;;;;;;4.83;3.30;;;;;;;-145.18;0.00;47006.16;5032236;28;20057;-62
2023/10/17 13:40:21;;;;;;;3.93;3.53;;;;;;;-145.18;0.00;47012.00;5029390;28;20065;-63